Time;durP1;ratioP1;P1;durP2;ratioP2;P2;SDS_P1;SDS_P2;PMS_P1;PMS_P2;Temp;Humidity;BMP_temperature;BMP_pressure;BME280_temperature;BME280_humidity;BME280_pressure;Samples;Min_cycle;Max_cycle;Signal;HPM_P1;HPM_P2
2021/04/12 00:01:39;;;;;;;5.83;4.43;;;;;;;6.23;100.00;98183.31;5026994;28;20212;-70
2021/04/12 00:04:11;;;;;;;5.53;4.10;;;;;;;6.09;100.00;98202.56;5023134;28;20225;-70
2021/04/12 00:06:44;;;;;;;6.30;4.60;;;;;;;6.34;100.00;98194.38;5025721;28;20226;-70
2021/04/12 00:09:13;;;;;;;5.77;4.30;;;;;;;6.02;100.00;98201.56;5028516;28;20214;-70
2021/04/12 00:11:44;;;;;;;5.53;4.17;;;;;;;6.26;100.00;98196.25;5020213;28;20585;-70
2021/04/12 00:14:14;;;;;;;5.30;3.87;;;;;;;6.09;100.00;98198.09;5026559;28;20772;-70
2021/04/12 00:16:46;;;;;;;16.00;7.73;;;;;;;6.17;100.00;98203.38;5028077;28;20218;-70
2021/04/12 00:19:18;;;;;;;5.87;4.37;;;;;;;5.85;100.00;98215.84;5025706;28;20205;-70
2021/04/12 00:21:50;;;;;;;6.07;4.47;;;;;;;5.75;100.00;98201.91;5023867;28;20210;-70
2021/04/12 00:24:23;;;;;;;6.13;4.53;;;;;;;5.57;100.00;98207.38;5027301;28;20234;-70
2021/04/12 00:26:55;;;;;;;6.83;4.80;;;;;;;5.88;100.00;98223.44;5024005;28;20226;-70
2021/04/12 00:29:26;;;;;;;6.03;4.10;;;;;;;6.06;100.00;98235.53;5026958;28;20667;-70
2021/04/12 00:31:56;;;;;;;6.20;4.20;;;;;;;5.94;100.00;98228.09;5027744;28;20215;-70
2021/04/12 00:34:28;;;;;;;6.27;4.13;;;;;;;5.91;100.00;98228.41;5025540;28;20226;-70
2021/04/12 00:36:59;;;;;;;6.47;4.50;;;;;;;6.12;100.00;98245.47;5023710;28;20202;-70
2021/04/12 00:39:36;;;;;;;8.27;4.60;;;;;;;5.86;100.00;98250.09;5027945;28;20608;-70
2021/04/12 00:42:29;;;;;;;6.93;4.60;;;;;;;6.02;100.00;98258.03;5023196;28;21086;-70
2021/04/12 00:45:19;;;;;;;8.30;4.70;;;;;;;5.74;100.00;98259.31;5021977;28;20241;-70
2021/04/12 00:47:53;;;;;;;6.83;4.50;;;;;;;5.60;100.00;98275.03;5027901;28;20698;-70
2021/04/12 00:50:33;;;;;;;5.57;4.53;;;;;;;5.69;100.00;98274.06;5028889;28;20207;-70
2021/04/12 00:53:20;;;;;;;6.73;4.33;;;;;;;5.70;100.00;98273.91;5022364;28;20202;-70
2021/04/12 00:55:50;;;;;;;6.73;4.63;;;;;;;5.44;100.00;98285.59;5023172;28;20449;-70
2021/04/12 00:58:24;;;;;;;7.63;4.77;;;;;;;5.34;100.00;98293.66;5029240;28;20198;-70
2021/04/12 01:01:09;;;;;;;8.40;5.10;;;;;;;5.42;100.00;98288.41;5030204;28;20674;-70
2021/04/12 01:03:49;;;;;;;6.90;4.50;;;;;;;5.26;100.00;98303.41;5022634;28;20311;-70
2021/04/12 01:06:24;;;;;;;8.97;4.87;;;;;;;5.20;100.00;98306.69;5025190;28;20237;-70
2021/04/12 01:09:17;;;;;;;7.63;4.97;;;;;;;5.21;100.00;98309.19;5021723;28;20205;-70
2021/04/12 01:12:09;;;;;;;6.73;4.97;;;;;;;5.32;100.00;98306.22;5021854;28;20559;-70
2021/04/12 01:14:56;;;;;;;7.00;5.40;;;;;;;5.16;100.00;98321.22;5025872;28;20229;-70
2021/04/12 01:17:42;;;;;;;8.63;5.13;;;;;;;5.30;100.00;98321.44;5024430;28;20580;-70
2021/04/12 01:20:47;;;;;;;7.57;4.70;;;;;;;5.56;100.00;98316.06;5020629;28;20199;-71
2021/04/12 01:23:42;;;;;;;8.37;5.30;;;;;;;5.27;100.00;98320.91;5023492;28;20655;-70
2021/04/12 01:26:56;;;;;;;6.97;4.53;;;;;;;5.56;100.00;98311.59;5017290;28;20226;-70
2021/04/12 01:30:15;;;;;;;9.33;5.43;;;;;;;5.60;100.00;98326.19;4945058;28;20242;-70
2021/04/12 01:33:10;;;;;;;9.43;5.67;;;;;;;5.87;100.00;98341.81;5029124;28;20213;-70
2021/04/12 01:36:05;;;;;;;9.10;5.27;;;;;;;5.38;100.00;98341.81;5021536;28;20246;-70
2021/04/12 01:38:36;;;;;;;9.07;5.80;;;;;;;5.54;100.00;98340.03;5029799;28;20211;-70
2021/04/12 01:41:20;;;;;;;8.13;5.37;;;;;;;5.29;100.00;98329.53;5026461;28;20214;-70
2021/04/12 01:44:20;;;;;;;8.43;5.90;;;;;;;5.59;100.00;98334.28;5022992;28;20207;-70
2021/04/12 01:46:58;;;;;;;8.40;5.63;;;;;;;5.72;100.00;98342.56;5018092;28;20227;-70
2021/04/12 01:49:37;;;;;;;7.30;4.83;;;;;;;5.41;100.00;98350.25;5017052;28;20576;-70
2021/04/12 01:52:32;;;;;;;11.57;6.03;;;;;;;5.43;100.00;98350.09;5028000;28;20709;-70
2021/04/12 01:55:20;;;;;;;9.57;6.20;;;;;;;5.46;100.00;98355.91;5018700;28;20226;-70
2021/04/12 01:58:07;;;;;;;8.87;6.23;;;;;;;5.46;100.00;98366.50;5022046;28;20626;-70
2021/04/12 02:00:47;;;;;;;9.27;6.20;;;;;;;5.46;100.00;98378.88;5027683;28;20202;-70
2021/04/12 02:03:26;;;;;;;10.90;6.30;;;;;;;5.23;100.00;98380.47;5022481;28;20211;-70
2021/04/12 02:06:13;;;;;;;9.63;5.80;;;;;;;5.39;100.00;98383.16;5023668;28;20214;-70
2021/04/12 02:08:49;;;;;;;8.47;5.90;;;;;;;5.41;100.00;98402.34;5021857;28;20217;-69
2021/04/12 02:11:22;;;;;;;9.07;6.27;;;;;;;5.53;100.00;98409.03;5024995;28;20221;-69
2021/04/12 02:14:16;;;;;;;9.17;5.87;;;;;;;5.27;100.00;98413.53;5028348;28;20288;-70
2021/04/12 02:16:55;;;;;;;10.63;6.80;;;;;;;5.16;100.00;98409.34;5024680;28;20194;-70
2021/04/12 02:19:36;;;;;;;8.03;5.83;;;;;;;5.37;100.00;98411.59;5027311;28;20686;-69
2021/04/12 02:22:18;;;;;;;7.30;5.43;;;;;;;5.32;100.00;98406.78;5023062;28;20579;-69
2021/04/12 02:24:52;;;;;;;8.57;5.23;;;;;;;5.11;100.00;98411.63;5027785;28;20234;-69
2021/04/12 02:27:22;;;;;;;10.27;6.13;;;;;;;13.06;100.00;98391.03;5023800;28;20709;-69
2021/04/12 02:29:57;;;;;;;9.17;6.10;;;;;;;5.41;100.00;98416.44;5026694;28;20203;-70
2021/04/12 02:32:59;;;;;;;8.37;5.60;;;;;;;5.53;100.00;98433.66;5022947;28;20205;-70
2021/04/12 02:35:37;;;;;;;10.77;6.33;;;;;;;5.45;100.00;98419.59;5029577;28;20226;-67
2021/04/12 02:38:20;;;;;;;13.57;6.77;;;;;;;5.30;100.00;98423.81;5024064;28;20206;-67
2021/04/12 02:41:01;;;;;;;10.87;6.10;;;;;;;5.14;100.00;98426.38;5032987;28;20202;-68
2021/04/12 02:43:42;;;;;;;11.73;6.77;;;;;;;5.23;100.00;98426.25;5032833;28;20217;-68
2021/04/12 02:46:22;;;;;;;11.27;7.17;;;;;;;5.48;100.00;98427.22;5027440;28;20230;-70
2021/04/12 02:48:59;;;;;;;12.27;6.73;;;;;;;5.59;100.00;98435.69;5031968;28;20233;-68
2021/04/12 02:51:36;;;;;;;13.47;6.73;;;;;;;5.29;100.00;98441.50;5029959;28;20252;-68
2021/04/12 02:54:30;;;;;;;14.37;7.50;;;;;;;5.51;100.00;98446.25;5028702;28;20225;-68
2021/04/12 02:57:20;;;;;;;10.23;6.50;;;;;;;5.44;100.00;98453.16;5031670;28;20659;-68
2021/04/12 03:00:21;;;;;;;10.03;6.67;;;;;;;5.59;100.00;98443.63;5024437;28;20218;-68
2021/04/12 03:03:05;;;;;;;11.03;6.33;;;;;;;5.29;100.00;98441.50;5004101;28;20660;-68
2021/04/12 03:05:57;;;;;;;11.83;5.90;;;;;;;5.48;100.00;98453.69;5032273;28;20264;-68
2021/04/12 03:08:35;;;;;;;10.00;6.60;;;;;;;5.69;100.00;98452.25;5029661;28;20265;-68
2021/04/12 03:11:38;;;;;;;9.27;5.70;;;;;;;5.20;100.00;98465.41;5028588;28;20235;-68
2021/04/12 03:14:46;;;;;;;10.13;5.50;;;;;;;5.44;100.00;98476.16;5024143;28;20310;-68
2021/04/12 03:17:37;;;;;;;8.63;5.53;;;;;;;5.29;100.00;98486.47;5026490;28;20202;-68
2021/04/12 03:20:24;;;;;;;8.20;4.87;;;;;;;5.18;100.00;98483.28;5031383;28;20633;-68
2021/04/12 03:23:17;;;;;;;9.67;5.43;;;;;;;5.06;100.00;98497.72;5027346;28;20308;-68
2021/04/12 03:26:04;;;;;;;10.47;6.37;;;;;;;5.21;100.00;98488.25;5023335;28;20699;-68
2021/04/12 03:28:49;;;;;;;9.87;5.97;;;;;;;5.36;100.00;98490.16;5031704;28;20214;-68
2021/04/12 03:31:26;;;;;;;10.83;5.90;;;;;;;5.32;100.00;98490.63;5027973;28;20207;-68
2021/04/12 03:34:13;;;;;;;9.30;6.07;;;;;;;5.36;100.00;98484.03;5019121;28;20718;-68
2021/04/12 03:37:19;;;;;;;10.13;6.30;;;;;;;5.50;100.00;98476.34;5031650;28;20586;-68
2021/04/12 03:39:53;;;;;;;11.17;5.87;;;;;;;5.34;100.00;98486.81;5023760;28;20209;-68
2021/04/12 03:42:44;;;;;;;10.50;5.83;;;;;;;5.67;100.00;98485.19;5028393;28;20228;-68
2021/04/12 03:45:41;;;;;;;11.47;5.93;;;;;;;5.43;100.00;98498.31;5030663;28;20231;-68
2021/04/12 03:48:24;;;;;;;11.17;6.13;;;;;;;5.28;100.00;98498.03;5028993;28;20218;-68
2021/04/12 03:51:19;;;;;;;12.23;6.73;;;;;;;5.35;100.00;98504.41;5020693;28;20260;-68
2021/04/12 03:54:12;;;;;;;11.27;5.90;;;;;;;5.51;100.00;98514.22;5028801;28;20202;-68
2021/04/12 03:57:01;;;;;;;10.47;6.00;;;;;;;5.43;100.00;98519.50;5025230;28;20201;-68
2021/04/12 03:59:38;;;;;;;11.77;6.93;;;;;;;5.46;100.00;98527.94;5031248;28;20198;-68
2021/04/12 04:02:25;;;;;;;13.80;6.83;;;;;;;5.39;100.00;98541.97;5030602;28;20198;-68
2021/04/12 04:05:27;;;;;;;13.40;7.67;;;;;;;5.41;100.00;98551.41;5028854;28;20264;-68
2021/04/12 04:08:33;;;;;;;15.60;7.70;;;;;;;5.42;100.00;98553.06;5023089;28;20236;-68
2021/04/12 04:11:43;;;;;;;13.73;7.33;;;;;;;5.36;100.00;98552.84;5027749;28;20198;-68
2021/04/12 04:14:30;;;;;;;17.43;7.37;;;;;;;5.43;100.00;98557.34;5014338;28;20233;-68
2021/04/12 04:17:12;;;;;;;14.30;7.50;;;;;;;5.28;100.00;98555.44;5023756;28;20667;-68
2021/04/12 04:19:48;;;;;;;14.50;7.77;;;;;;;5.31;100.00;98550.66;5029890;28;20252;-68
2021/04/12 04:22:41;;;;;;;17.30;8.33;;;;;;;5.35;100.00;98548.53;5027447;28;20210;-68
2021/04/12 04:25:30;;;;;;;12.20;7.37;;;;;;;5.10;100.00;98552.00;5026496;28;20233;-68
2021/04/12 04:28:51;;;;;;;17.03;8.57;;;;;;;5.22;100.00;98556.03;5023618;28;20222;-69
2021/04/12 04:31:53;;;;;;;12.93;7.63;;;;;;;5.18;100.00;98560.00;4958540;28;20223;-68
2021/04/12 04:34:34;;;;;;;12.47;7.17;;;;;;;5.10;100.00;98574.00;4949826;28;20239;-69
2021/04/12 04:37:23;;;;;;;13.47;7.70;;;;;;;5.27;100.00;98581.06;5012130;28;20226;-69
2021/04/12 04:40:11;;;;;;;13.00;7.53;;;;;;;5.27;100.00;98594.28;5015808;28;20242;-69
2021/04/12 04:43:03;;;;;;;12.53;6.50;;;;;;;5.04;100.00;98601.06;5024991;28;20209;-69
2021/04/12 04:45:40;;;;;;;11.63;6.70;;;;;;;5.14;100.00;98604.44;5013605;28;20230;-69
2021/04/12 04:48:49;;;;;;;11.13;6.43;;;;;;;5.12;100.00;98602.94;5019081;28;20233;-69
2021/04/12 04:51:27;;;;;;;11.73;6.87;;;;;;;5.23;100.00;98610.63;5017970;28;20210;-69
2021/04/12 04:54:15;;;;;;;9.00;5.70;;;;;;;4.96;100.00;98616.84;5025215;28;20226;-69
2021/04/12 04:57:13;;;;;;;8.30;5.47;;;;;;;4.68;100.00;98619.69;5018056;28;20211;-69
2021/04/12 05:00:03;;;;;;;10.43;5.83;;;;;;;4.84;100.00;98628.63;5028022;28;20576;-69
2021/04/12 05:02:59;;;;;;;8.97;5.87;;;;;;;5.10;100.00;98637.47;5023782;28;20209;-69
2021/04/12 05:05:33;;;;;;;11.23;5.90;;;;;;;4.70;100.00;98646.81;5021788;28;20221;-70
2021/04/12 05:08:51;;;;;;;8.97;5.60;;;;;;;5.03;100.00;98654.09;5029493;28;20236;-70
2021/04/12 05:11:46;;;;;;;12.33;6.43;;;;;;;4.71;100.00;98651.09;4949179;29;20201;-70
2021/04/12 05:14:45;;;;;;;11.60;6.93;;;;;;;4.91;100.00;98664.06;5003848;28;20245;-69
2021/04/12 05:17:38;;;;;;;12.63;6.40;;;;;;;4.58;100.00;98666.50;5018772;28;20206;-71
2021/04/12 05:20:20;;;;;;;11.07;6.50;;;;;;;4.71;100.00;98661.69;5029865;28;20264;-72
2021/04/12 05:23:23;;;;;;;11.53;6.67;;;;;;;4.66;100.00;98670.06;5031501;28;20347;-76
2021/04/12 05:26:23;;;;;;;13.47;6.80;;;;;;;4.64;100.00;98672.03;4998320;28;20238;-71
2021/04/12 05:29:44;;;;;;;14.77;7.10;;;;;;;4.72;100.00;98682.69;5026040;28;20245;-74
2021/04/12 05:32:43;;;;;;;14.10;9.13;;;;;;;4.63;100.00;98695.97;5024469;28;20459;-71
2021/04/12 05:35:38;;;;;;;13.00;7.63;;;;;;;4.66;100.00;98695.66;4995674;28;20238;-70
2021/04/12 05:38:38;;;;;;;12.63;6.77;;;;;;;4.59;100.00;98702.53;5015572;28;20207;-70
2021/04/12 05:41:28;;;;;;;13.57;8.43;;;;;;;4.58;100.00;98685.81;5023773;28;20740;-71
2021/04/12 05:44:06;;;;;;;13.53;7.33;;;;;;;4.62;100.00;98694.31;5018819;28;20726;-70
2021/04/12 05:46:51;;;;;;;13.50;7.00;;;;;;;4.88;100.00;98695.28;5028228;28;20230;-70
2021/04/12 05:49:37;;;;;;;13.07;8.30;;;;;;;4.92;100.00;98700.09;5021801;28;20333;-70
2021/04/12 05:52:30;;;;;;;11.17;6.63;;;;;;;4.91;100.00;98716.09;5022761;28;20198;-72
2021/04/12 05:55:33;;;;;;;13.73;7.93;;;;;;;5.01;100.00;98717.72;5026317;28;20698;-69
2021/04/12 05:58:19;;;;;;;13.27;7.60;;;;;;;4.90;100.00;98725.03;5022880;28;20209;-69
2021/04/12 06:00:57;;;;;;;15.80;8.20;;;;;;;5.13;100.00;98739.53;5027939;28;20206;-69
2021/04/12 06:03:39;;;;;;;13.07;7.87;;;;;;;5.17;100.00;98738.22;5028684;28;20213;-74
2021/04/12 06:06:30;;;;;;;16.77;9.40;;;;;;;4.84;100.00;98744.97;5032530;28;20596;-74
2021/04/12 06:09:14;;;;;;;14.43;8.73;;;;;;;5.05;100.00;98742.06;5032554;28;20221;-69
2021/04/12 06:12:15;;;;;;;15.90;8.80;;;;;;;5.23;100.00;98746.41;5031946;28;20214;-70
2021/04/12 06:15:15;;;;;;;15.47;9.27;;;;;;;5.20;100.00;98754.66;5024235;28;20229;-69
2021/04/12 06:17:59;;;;;;;15.77;9.20;;;;;;;5.49;100.00;98757.91;5019717;28;20624;-69
2021/04/12 06:20:42;;;;;;;16.50;8.50;;;;;;;5.48;100.00;98763.38;5029920;28;20204;-69
2021/04/12 06:23:35;;;;;;;15.03;9.10;;;;;;;5.49;100.00;98771.13;5025940;28;20206;-70
2021/04/12 06:26:40;;;;;;;18.73;9.80;;;;;;;5.88;100.00;98761.09;5030660;28;20213;-70
2021/04/12 06:29:35;;;;;;;16.70;9.53;;;;;;;5.36;100.00;98769.84;5031372;28;20212;-69
2021/04/12 06:32:29;;;;;;;18.63;10.00;;;;;;;5.76;100.00;98784.31;5030186;28;20202;-70
2021/04/12 06:35:24;;;;;;;15.53;9.43;;;;;;;5.99;100.00;98771.47;5030153;28;20226;-69
2021/04/12 06:38:17;;;;;;;18.03;9.43;;;;;;;5.96;100.00;98777.91;4988162;28;20206;-69
2021/04/12 06:41:09;;;;;;;18.33;9.67;;;;;;;5.60;100.00;98786.81;5027960;28;20570;-69
2021/04/12 06:44:06;;;;;;;15.23;9.23;;;;;;;5.98;100.00;98802.41;5026644;28;20254;-69
2021/04/12 06:47:33;;;;;;;16.17;9.57;;;;;;;6.04;100.00;98796.50;4993791;28;20226;-69
2021/04/12 06:50:25;;;;;;;17.10;9.57;;;;;;;5.65;100.00;98808.38;4966096;28;20824;-69
2021/04/12 06:53:18;;;;;;;16.30;9.23;;;;;;;5.75;100.00;98808.31;5019528;28;20655;-69
2021/04/12 06:56:44;;;;;;;17.67;8.57;;;;;;;5.77;100.00;98812.47;5032633;28;20312;-69
2021/04/12 06:59:56;;;;;;;15.87;8.67;;;;;;;5.95;100.00;98817.78;4946064;28;20221;-69
2021/04/12 07:03:10;;;;;;;21.53;9.40;;;;;;;6.06;100.00;98814.91;5024359;28;20202;-69
2021/04/12 07:06:13;;;;;;;19.33;10.17;;;;;;;5.99;100.00;98817.31;4995563;28;20226;-69
2021/04/12 07:09:01;;;;;;;15.20;9.23;;;;;;;5.80;100.00;98821.97;4999262;28;20697;-69
2021/04/12 07:12:02;;;;;;;18.80;9.50;;;;;;;5.48;100.00;98838.31;5015771;28;20204;-69
2021/04/12 07:15:06;;;;;;;23.97;10.23;;;;;;;5.80;100.00;98840.50;5027101;28;20226;-69
2021/04/12 07:18:14;;;;;;;14.83;8.27;;;;;;;5.60;100.00;98844.22;5031942;28;20297;-69
2021/04/12 07:21:02;;;;;;;17.83;8.80;;;;;;;5.71;100.00;98849.31;5032009;28;20225;-69
2021/04/12 07:24:12;;;;;;;16.23;9.00;;;;;;;5.67;100.00;98858.53;5025581;28;20791;-69
2021/04/12 07:27:17;;;;;;;19.97;9.93;;;;;;;5.48;100.00;98848.09;5023785;28;20210;-75
2021/04/12 07:30:23;;;;;;;19.13;10.87;;;;;;;5.71;100.00;98863.38;5022789;28;20198;-73
2021/04/12 07:33:18;;;;;;;17.93;10.07;;;;;;;5.99;100.00;98853.59;5013840;28;20814;-69
2021/04/12 07:36:30;;;;;;;21.40;11.27;;;;;;;5.82;100.00;98854.41;5002782;28;20706;-68
2021/04/12 07:39:27;;;;;;;15.03;9.20;;;;;;;5.75;100.00;98853.31;5030588;28;20202;-68
2021/04/12 07:42:29;;;;;;;19.43;11.33;;;;;;;6.12;100.00;98860.19;5019949;28;20209;-67
2021/04/12 07:45:36;;;;;;;24.37;10.90;;;;;;;6.28;100.00;98868.25;4972229;28;20230;-67
2021/04/12 07:48:38;;;;;;;20.90;10.77;;;;;;;6.37;100.00;98867.34;5028159;28;20593;-67
2021/04/12 07:51:34;;;;;;;21.80;12.60;;;;;;;6.16;100.00;98882.75;5017684;28;20214;-68
2021/04/12 07:54:45;;;;;;;21.37;11.20;;;;;;;6.60;100.00;98880.94;5022817;28;20231;-69
2021/04/12 07:58:07;;;;;;;24.97;12.37;;;;;;;6.73;100.00;98887.50;5009055;28;20210;-67
2021/04/12 08:01:06;;;;;;;21.67;11.83;;;;;;;6.61;100.00;98903.81;5027886;28;20214;-68
2021/04/12 08:04:11;;;;;;;21.17;11.77;;;;;;;6.15;100.00;98901.44;4979162;28;20223;-68
2021/04/12 08:07:19;;;;;;;20.83;12.03;;;;;;;6.21;100.00;98912.28;5025370;28;20234;-69
2021/04/12 08:10:27;;;;;;;23.53;11.97;;;;;;;6.29;100.00;98907.03;4996638;28;20211;-69
2021/04/12 08:13:17;;;;;;;20.80;12.47;;;;;;;6.95;100.00;98902.91;5025746;28;20700;-68
2021/04/12 08:16:09;;;;;;;22.33;12.10;;;;;;;6.85;100.00;98909.31;5026868;28;20237;-68
2021/04/12 08:19:01;;;;;;;21.80;12.50;;;;;;;6.96;100.00;98903.75;5024491;28;20198;-69
2021/04/12 08:21:46;;;;;;;20.37;12.87;;;;;;;7.20;100.00;98902.03;5026765;28;20238;-69
2021/04/12 08:24:43;;;;;;;20.03;11.43;;;;;;;7.06;100.00;98915.09;5028377;28;20242;-70
2021/04/12 08:27:41;;;;;;;19.57;11.77;;;;;;;7.39;100.00;98911.59;5025571;28;20230;-69
2021/04/12 08:30:35;;;;;;;23.27;12.07;;;;;;;6.82;100.00;98920.22;5028228;28;20663;-67
2021/04/12 08:33:41;;;;;;;16.10;10.10;;;;;;;6.92;100.00;98913.00;5026250;28;20211;-69
2021/04/12 08:36:44;;;;;;;17.23;10.50;;;;;;;7.09;100.00;98910.28;5028711;28;20213;-69
2021/04/12 08:39:41;;;;;;;16.90;10.67;;;;;;;6.61;100.00;98933.81;5030532;28;20207;-67
2021/04/12 08:42:46;;;;;;;14.50;9.13;;;;;;;6.77;100.00;98922.50;5024685;28;20218;-67
2021/04/12 08:46:03;;;;;;;13.40;9.27;;;;;;;6.63;100.00;98929.19;5002444;28;20226;-67
2021/04/12 08:49:06;;;;;;;15.43;9.10;;;;;;;6.97;100.00;98923.97;5014229;28;20227;-68
2021/04/12 08:52:10;;;;;;;13.80;8.90;;;;;;;7.28;100.00;98928.66;5028107;28;20559;-69
2021/04/12 08:55:13;;;;;;;14.90;8.80;;;;;;;7.56;100.00;98924.78;5025091;28;20231;-70
2021/04/12 08:58:18;;;;;;;12.23;8.03;;;;;;;6.84;100.00;98931.50;5027799;28;20204;-69
2021/04/12 09:01:27;;;;;;;12.50;7.90;;;;;;;7.25;100.00;98942.22;4974796;28;20226;-70
2021/04/12 09:04:26;;;;;;;12.50;7.60;;;;;;;6.99;100.00;98941.41;4972226;28;20296;-67
2021/04/12 09:07:22;;;;;;;10.13;6.57;;;;;;;7.18;100.00;98950.97;5018404;28;20782;-67
2021/04/12 09:10:12;;;;;;;12.03;7.00;;;;;;;7.24;100.00;98950.34;5016507;28;20210;-69
2021/04/12 09:12:55;;;;;;;10.17;6.07;;;;;;;7.28;100.00;98944.56;5022966;28;20246;-69
2021/04/12 09:15:48;;;;;;;10.77;6.90;;;;;;;7.43;100.00;98948.31;5019685;28;20329;-71
2021/04/12 09:18:43;;;;;;;9.30;6.57;;;;;;;7.08;100.00;98951.09;5020052;28;20245;-67
2021/04/12 09:21:29;;;;;;;18.53;6.43;;;;;;;7.52;100.00;98959.81;5024238;28;20215;-79
2021/04/12 09:24:30;;;;;;;13.47;6.17;;;;;;;7.31;100.00;98964.69;5027883;28;20234;-78
2021/04/12 09:27:39;;;;;;;8.43;5.40;;;;;;;7.70;100.00;98963.19;5026057;28;20227;-69
2021/04/12 09:30:19;;;;;;;10.63;5.67;;;;;;;8.21;100.00;98963.06;5026899;28;20219;-71
2021/04/12 09:33:17;;;;;;;9.50;5.57;;;;;;;8.34;100.00;98974.91;5026387;28;20207;-69
2021/04/12 09:36:09;;;;;;;7.13;5.00;;;;;;;8.31;100.00;98979.69;5029547;28;20779;-68
2021/04/12 09:39:21;;;;;;;8.40;4.30;;;;;;;7.82;100.00;98976.03;5030437;28;20614;-69
2021/04/12 09:42:42;;;;;;;7.53;4.17;;;;;;;8.39;100.00;98977.06;5022426;28;20254;-68
2021/04/12 09:45:42;;;;;;;7.23;4.23;;;;;;;8.88;100.00;98974.28;4992444;28;20641;-69
2021/04/12 09:48:38;;;;;;;9.13;3.80;;;;;;;8.48;100.00;98968.94;5031066;28;20237;-67
2021/04/12 09:51:39;;;;;;;7.07;3.53;;;;;;;8.79;100.00;98971.78;5030409;28;20213;-67
2021/04/12 09:54:31;;;;;;;6.57;3.53;;;;;;;8.85;100.00;98981.78;5029774;28;20251;-68
2021/04/12 09:57:45;;;;;;;10.47;3.80;;;;;;;9.19;100.00;98977.91;5002292;28;20212;-68
2021/04/12 10:00:28;;;;;;;8.23;4.00;;;;;;;8.90;97.61;98985.59;4948687;29;20219;-68
2021/04/12 10:03:32;;;;;;;7.43;3.97;;;;;;;8.74;100.00;98990.09;4945396;29;20239;-68
2021/04/12 10:06:38;;;;;;;4.67;3.17;;;;;;;7.90;100.00;98997.34;5015106;28;20200;-68
2021/04/12 10:09:35;;;;;;;6.13;3.77;;;;;;;8.74;100.00;98998.91;4990153;28;20233;-68
2021/04/12 10:12:19;;;;;;;7.70;3.67;;;;;;;9.38;100.00;99006.03;5026546;28;20216;-70
2021/04/12 10:14:48;;;;;;;6.00;2.97;;;;;;;9.37;86.44;99020.34;5029744;28;20283;-83
2021/04/12 10:17:17;;;;;;;6.53;2.57;;;;;;;9.28;80.71;99021.38;5021815;28;20229;-73
2021/04/12 10:19:49;;;;;;;2.97;2.33;;;;;;;9.16;77.98;99020.88;5032485;28;20210;-74
2021/04/12 10:22:18;;;;;;;3.67;2.30;;;;;;;9.48;84.67;99015.50;5026872;28;20214;-75
2021/04/12 10:24:52;;;;;;;3.77;2.67;;;;;;;9.46;79.24;99012.19;5029533;28;20603;-71
2021/04/12 10:27:22;;;;;;;12.27;2.30;;;;;;;9.34;76.76;99012.72;5028645;28;20237;-75
2021/04/12 10:29:53;;;;;;;3.13;2.20;;;;;;;8.97;71.75;99025.69;5026801;28;20207;-73
2021/04/12 10:32:24;;;;;;;3.97;2.10;;;;;;;8.76;81.85;99010.22;5033165;28;20204;-71
2021/04/12 10:35:00;;;;;;;11.80;2.73;;;;;;;9.76;75.07;99013.25;5031767;28;20222;-77
2021/04/12 10:37:34;;;;;;;4.37;2.13;;;;;;;8.80;72.64;99014.22;5032807;28;20205;-71
2021/04/12 10:40:09;;;;;;;6.80;2.03;;;;;;;8.76;70.59;99026.19;5029493;28;20217;-70
2021/04/12 10:42:40;;;;;;;2.40;2.03;;;;;;;8.73;70.54;99025.69;5029246;28;20198;-73
2021/04/12 10:45:13;;;;;;;4.97;2.20;;;;;;;9.67;71.81;99014.28;5030946;28;20225;-72
2021/04/12 10:47:52;;;;;;;3.73;1.70;;;;;;;9.90;62.92;99034.72;5031836;28;20238;-71
2021/04/12 10:50:27;;;;;;;3.33;1.60;;;;;;;9.97;60.30;99045.53;5026818;28;21896;-70
2021/04/12 10:53:11;;;;;;;2.03;1.27;;;;;;;8.62;57.33;99036.66;5025281;28;20210;-73
2021/04/12 10:55:42;;;;;;;2.97;1.80;;;;;;;9.18;63.34;99018.88;5028253;28;20222;-72
2021/04/12 10:58:19;;;;;;;2.27;1.70;;;;;;;9.45;64.53;99013.19;5028679;28;20212;-71
2021/04/12 11:01:01;;;;;;;6.23;2.23;;;;;;;9.48;65.17;99023.50;5032672;28;20205;-73
2021/04/12 11:03:49;;;;;;;4.10;2.23;;;;;;;8.33;73.24;99009.66;5027392;28;20207;-76
2021/04/12 11:07:04;;;;;;;3.77;1.90;;;;;;;8.87;72.32;99003.72;5032009;28;20289;-71
2021/04/12 11:09:46;;;;;;;4.77;2.20;;;;;;;9.44;74.15;99011.50;5015310;28;20218;-75
2021/04/12 11:12:23;;;;;;;5.30;1.90;;;;;;;9.89;71.59;99013.56;5030106;28;20210;-76
2021/04/12 11:14:54;;;;;;;8.23;2.13;;;;;;;9.97;74.05;99019.69;5029033;28;20718;-75
2021/04/12 11:17:33;;;;;;;5.70;1.90;;;;;;;9.96;60.13;99036.72;5024448;28;20199;-76
2021/04/12 11:20:07;;;;;;;3.33;1.77;;;;;;;10.26;58.30;99038.59;5026473;28;20202;-76
2021/04/12 11:22:56;;;;;;;7.83;1.80;;;;;;;10.03;54.90;99050.16;5024354;28;20207;-73
2021/04/12 11:25:34;;;;;;;9.10;1.93;;;;;;;10.01;57.81;99034.34;5027424;28;20243;-73
2021/04/12 11:28:16;;;;;;;6.00;1.70;;;;;;;10.18;61.97;99030.66;5030297;28;20237;-73
2021/04/12 11:30:55;;;;;;;3.20;1.50;;;;;;;9.02;62.26;99042.00;5019922;28;20215;-75
2021/04/12 11:33:40;;;;;;;2.27;1.60;;;;;;;9.10;60.03;99042.00;5025558;28;20339;-68
2021/04/12 11:36:14;;;;;;;3.90;1.77;;;;;;;9.29;60.86;99031.84;5028648;28;20241;-68
2021/04/12 11:38:47;;;;;;;3.77;1.73;;;;;;;9.36;60.17;99032.84;5023655;28;20214;-71
2021/04/12 11:41:18;;;;;;;4.10;1.80;;;;;;;9.58;59.54;99031.28;5027271;28;20298;-68
2021/04/12 11:43:49;;;;;;;11.77;2.20;;;;;;;9.74;61.07;99031.28;5023156;28;20203;-68
2021/04/12 11:46:21;;;;;;;3.23;1.80;;;;;;;10.16;60.04;99034.50;5026651;28;20245;-69
2021/04/12 11:48:51;;;;;;;5.10;1.60;;;;;;;10.35;52.59;99045.56;5025485;28;20214;-69
2021/04/12 11:51:27;;;;;;;4.97;1.23;;;;;;;10.56;50.51;99051.13;5030163;28;20217;-69
2021/04/12 11:53:56;;;;;;;5.17;1.30;;;;;;;11.31;50.34;99044.09;5024248;28;20222;-69
2021/04/12 11:56:44;;;;;;;2.17;1.23;;;;;;;10.94;43.61;99060.91;5028766;28;20211;-71
2021/04/12 11:59:34;;;;;;;3.43;1.60;;;;;;;11.49;46.96;99052.59;5021827;28;20210;-69
2021/04/12 12:02:10;;;;;;;3.10;1.37;;;;;;;11.63;47.61;99054.50;5032572;28;20238;-70
2021/04/12 12:04:42;;;;;;;2.37;1.27;;;;;;;11.72;43.56;99061.44;5026026;28;20251;-70
2021/04/12 12:07:37;;;;;;;2.60;1.30;;;;;;;10.76;46.48;99060.34;5031583;28;20229;-69
2021/04/12 12:10:13;;;;;;;2.00;1.37;;;;;;;10.53;45.60;99055.97;5031163;28;20206;-69
2021/04/12 12:12:48;;;;;;;5.87;1.40;;;;;;;9.89;46.29;99059.72;5027552;28;20213;-70
2021/04/12 12:15:22;;;;;;;2.33;1.23;;;;;;;9.66;47.73;99069.44;5031634;28;20227;-71
2021/04/12 12:18:01;;;;;;;2.23;1.37;;;;;;;9.17;49.65;99061.63;5024962;28;20208;-71
2021/04/12 12:20:35;;;;;;;2.27;1.10;;;;;;;9.53;48.55;99058.47;5026930;28;20209;-70
2021/04/12 12:23:10;;;;;;;2.83;1.30;;;;;;;9.71;48.74;99058.25;5027551;28;20597;-68
2021/04/12 12:25:41;;;;;;;2.60;1.30;;;;;;;9.70;52.13;99052.09;5027540;28;20249;-70
2021/04/12 12:28:16;;;;;;;6.47;1.70;;;;;;;9.92;50.58;99061.22;5026957;28;20236;-69
2021/04/12 12:30:53;;;;;;;2.83;1.40;;;;;;;10.31;48.25;99070.91;5025640;28;20698;-69
2021/04/12 12:33:26;;;;;;;3.57;1.47;;;;;;;9.80;49.11;99065.25;5028120;28;20234;-69
2021/04/12 12:36:02;;;;;;;1.23;1.00;;;;;;;10.32;47.19;99064.59;5025466;28;20702;-70
2021/04/12 12:38:43;;;;;;;2.27;1.30;;;;;;;11.10;42.54;99078.63;5025027;28;20201;-67
2021/04/12 12:41:15;;;;;;;1.80;1.17;;;;;;;11.05;40.29;99100.56;5030457;28;20202;-70
2021/04/12 12:43:42;;;;;;;3.30;1.37;;;;;;;11.08;41.01;99094.03;5027079;28;21231;-70
2021/04/12 12:46:13;;;;;;;1.47;1.10;;;;;;;9.65;42.13;99096.25;5026571;28;20253;-70
2021/04/12 12:48:47;;;;;;;3.97;1.10;;;;;;;10.27;40.79;99085.63;5023814;28;20230;-69
2021/04/12 12:51:16;;;;;;;4.23;1.20;;;;;;;10.69;38.77;99101.25;5028631;28;20206;-68
2021/04/12 12:53:46;;;;;;;2.00;1.00;;;;;;;10.85;36.59;99118.03;5026521;28;20302;-68
2021/04/12 12:56:20;;;;;;;1.80;1.00;;;;;;;10.70;38.30;99103.78;5028541;28;20285;-67
2021/04/12 12:58:55;;;;;;;1.17;0.90;;;;;;;10.68;39.10;99096.13;5023207;28;20201;-67
2021/04/12 13:01:32;;;;;;;3.63;1.17;;;;;;;11.09;39.82;99091.19;5022803;28;20209;-67
2021/04/12 13:04:15;;;;;;;2.53;0.90;;;;;;;11.14;40.93;99079.94;5027872;28;20223;-68
2021/04/12 13:06:43;;;;;;;1.83;1.00;;;;;;;12.16;36.49;99088.22;5023761;28;20281;-66